Bonnie, Utah
Current Conditions -  °F | °C
As of 2:58 PM on Thursday 18 Dec 2014 (Local Time) from KPVU Reporting Station
Rain Showers Rain Showers  
Wind Chill: 39°   Ceiling: 10000
Heat Index: 39°   Visibility: 10mi
Dew Point: 30°   Wind: 0mph
Humidity: 70%   Direction: NA
Pressure: 30.13"   Gusts: NA
Location:  40.2724°N, 111.717°W
Report Text: KPVU 182158Z 00000KT 10SM VCSH SCT050 BKN100 04/M01 A3013
Loading
Personal Weather Stations






























Interactive Weather Map New forecast layout! Learn more

10-Day Weather Forecast

Advertisements
Track Severe Weather on mobile